Dallas, Texas
Traffic Map
Current Weather Conditions
Dallas, Texas
Overcast
Overcast
73°
Feels Like: 73°
Wind Chill: 73° Ceiling: 2700
Heat Index: 73° Visibility: 10mi
Dew Point: 61° Wind: 8mph
Humidity: 66% Direction: 160° (SSE)
Pressure: 30.12in Gusts: 0mph
Raw Report DataKDAL 301953Z 16007KT 10SM BKN027 OVC038 23/16 A3012 RMK AO2 SLP194 T02280161 PNO $
Traffic Incident Summary
Active as of:
Severity:
Category:
InformationThere was an issue retrieving the traffic information for this location. Please try a different location or try again shortly.
Advertisements
Track Severe Weather on mobile